createdAt,value
2023-05-19T00:01:25.233Z,8.28
2023-05-19T00:03:58.009Z,8.28
2023-05-19T00:06:29.386Z,8.24
2023-05-19T00:08:59.849Z,8.16
2023-05-19T00:11:30.252Z,8.15
2023-05-19T00:14:00.351Z,8.17
2023-05-19T00:16:29.955Z,8.16
2023-05-19T00:19:00.551Z,8.14
2023-05-19T00:21:29.937Z,8.13
2023-05-19T00:24:00.019Z,8.12
2023-05-19T00:26:32.197Z,8.14
2023-05-19T00:29:01.559Z,8.12
2023-05-19T00:31:31.877Z,8.09
2023-05-19T00:34:01.153Z,8.09
2023-05-19T00:36:30.208Z,8.06
2023-05-19T00:38:58.775Z,8.01
2023-05-19T00:41:27.891Z,8.09
2023-05-19T00:43:58.180Z,8.08
2023-05-19T00:46:27.138Z,8.08
2023-05-19T00:48:56.009Z,8.09
2023-05-19T00:51:25.868Z,8.08
2023-05-19T00:53:54.603Z,8.09
2023-05-19T00:56:23.753Z,8.07
2023-05-19T00:58:53.194Z,8.08
2023-05-19T01:01:23.637Z,8.08
2023-05-19T01:03:57.176Z,8.09
2023-05-19T01:06:25.932Z,8.10
2023-05-19T01:08:55.373Z,8.09
2023-05-19T01:11:24.105Z,8.10
2023-05-19T01:13:52.912Z,8.09
2023-05-19T01:16:26.894Z,8.07
2023-05-19T01:19:02.502Z,8.05
2023-05-19T01:21:56.805Z,8.06
2023-05-19T01:24:47.122Z,8.02
2023-05-19T01:27:30.535Z,8.02
2023-05-19T01:30:23.601Z,7.99
2023-05-19T01:32:53.654Z,8.00
2023-05-19T01:35:24.682Z,7.97
2023-05-19T01:37:55.215Z,7.99
2023-05-19T01:40:25.523Z,7.99
2023-05-19T01:42:57.555Z,7.99
2023-05-19T01:45:28.366Z,8.00
2023-05-19T01:47:59.906Z,7.98
2023-05-19T01:50:28.727Z,8.01
2023-05-19T01:52:57.578Z,8.00
2023-05-19T01:55:26.515Z,7.76
2023-05-19T01:58:02.875Z,7.99
2023-05-19T02:00:41.107Z,8.00
2023-05-19T02:03:16.524Z,7.99
2023-05-19T02:05:51.056Z,7.97
2023-05-19T02:08:23.941Z,7.99
2023-05-19T02:11:00.054Z,7.99
2023-05-19T02:13:33.337Z,7.98
2023-05-19T02:16:06.577Z,7.99
2023-05-19T02:18:35.960Z,7.96
2023-05-19T02:21:05.723Z,7.95
2023-05-19T02:23:34.521Z,7.95
2023-05-19T02:26:03.372Z,7.94
2023-05-19T02:28:32.189Z,7.93
2023-05-19T02:31:02.979Z,7.93
2023-05-19T02:33:32.172Z,7.93
2023-05-19T02:36:00.898Z,7.91
2023-05-19T02:38:29.393Z,7.92
2023-05-19T02:40:58.799Z,7.90
2023-05-19T02:43:27.462Z,7.93
2023-05-19T02:45:57.016Z,7.95
2023-05-19T02:48:26.769Z,7.97
2023-05-19T02:50:56.000Z,7.97
2023-05-19T02:53:24.783Z,7.99
2023-05-19T02:55:54.098Z,7.97
2023-05-19T02:58:23.282Z,7.95
2023-05-19T03:00:51.904Z,7.96
2023-05-19T03:03:20.974Z,7.97
2023-05-19T03:05:50.698Z,7.96
2023-05-19T03:08:20.061Z,7.95
2023-05-19T03:10:49.820Z,7.96
2023-05-19T03:13:18.876Z,7.95
2023-05-19T03:15:48.019Z,7.91
2023-05-19T03:18:17.115Z,7.89
2023-05-19T03:20:45.834Z,7.89
2023-05-19T03:23:15.946Z,7.92
2023-05-19T03:25:44.972Z,7.93
2023-05-19T03:28:13.914Z,7.93
2023-05-19T03:30:43.713Z,7.94
2023-05-19T03:33:12.969Z,7.97
2023-05-19T03:35:41.566Z,7.99
2023-05-19T03:38:10.892Z,8.00
2023-05-19T03:40:41.634Z,8.02
2023-05-19T03:43:10.180Z,8.02
2023-05-19T03:45:38.936Z,8.03
2023-05-19T03:48:08.654Z,8.02
2023-05-19T03:50:38.373Z,8.03
2023-05-19T03:53:07.585Z,8.03
2023-05-19T03:55:38.733Z,8.04
2023-05-19T03:58:10.945Z,8.05
2023-05-19T04:00:41.951Z,8.07
2023-05-19T04:03:11.145Z,8.09
2023-05-19T04:05:39.793Z,8.12
2023-05-19T04:08:08.557Z,8.08
2023-05-19T04:10:37.624Z,8.08
2023-05-19T04:13:06.369Z,8.09
2023-05-19T04:15:36.719Z,8.13
2023-05-19T04:18:05.565Z,8.09
2023-05-19T04:20:34.708Z,8.06
2023-05-19T04:23:03.618Z,8.08
2023-05-19T04:25:32.611Z,8.10
2023-05-19T04:28:01.309Z,8.10
2023-05-19T04:30:32.599Z,8.11
2023-05-19T04:33:05.009Z,8.08
2023-05-19T04:35:34.031Z,8.07
2023-05-19T04:38:03.124Z,8.07
2023-05-19T04:40:32.616Z,8.12
2023-05-19T04:43:02.340Z,8.18
2023-05-19T04:45:33.556Z,8.21
2023-05-19T04:48:04.299Z,8.26
2023-05-19T04:50:33.164Z,8.27
2023-05-19T04:53:02.313Z,8.26
2023-05-19T04:55:31.067Z,8.24
2023-05-19T04:58:00.129Z,8.33
2023-05-19T05:00:29.927Z,8.43
2023-05-19T05:02:59.293Z,8.50
2023-05-19T05:05:29.555Z,8.55
2023-05-19T05:07:58.888Z,8.54
2023-05-19T05:10:28.040Z,8.53
2023-05-19T05:12:57.405Z,8.48
2023-05-19T05:15:29.062Z,8.51
2023-05-19T05:17:58.426Z,8.45
2023-05-19T05:20:30.024Z,8.47
2023-05-19T05:22:59.994Z,8.37
2023-05-19T05:25:29.554Z,8.36
2023-05-19T05:27:59.170Z,8.23
2023-05-19T05:30:28.391Z,8.26
2023-05-19T05:32:57.317Z,8.24
2023-05-19T05:35:26.375Z,8.23
2023-05-19T05:37:56.575Z,8.20
2023-05-19T05:40:25.191Z,8.21
2023-05-19T05:42:55.859Z,8.20
2023-05-19T05:45:24.846Z,8.23
2023-05-19T05:47:54.431Z,8.26
2023-05-19T05:50:23.846Z,8.27
2023-05-19T05:52:52.821Z,8.29
2023-05-19T05:55:23.845Z,8.33
2023-05-19T05:57:52.564Z,8.36
2023-05-19T06:00:22.794Z,8.38
2023-05-19T06:02:52.465Z,8.39
2023-05-19T06:05:21.413Z,8.36
2023-05-19T06:07:50.299Z,8.38
2023-05-19T06:10:18.944Z,8.38
2023-05-19T06:12:49.617Z,8.45
2023-05-19T06:15:18.329Z,8.50
2023-05-19T06:17:46.811Z,8.58
2023-05-19T06:20:16.600Z,8.67
2023-05-19T06:22:45.311Z,8.79
2023-05-19T06:25:14.496Z,8.87
2023-05-19T06:27:43.336Z,8.94
2023-05-19T06:30:14.824Z,9.00
2023-05-19T06:32:43.748Z,9.15
2023-05-19T06:35:12.584Z,9.17
2023-05-19T06:37:41.269Z,9.26
2023-05-19T06:40:11.033Z,9.24
2023-05-19T06:42:40.124Z,9.29
2023-05-19T06:45:10.207Z,9.31
2023-05-19T06:47:41.898Z,9.42
2023-05-19T06:50:11.218Z,9.71
2023-05-19T06:52:40.095Z,9.75
2023-05-19T06:55:09.334Z,9.75
2023-05-19T06:57:38.545Z,9.96
2023-05-19T07:00:09.395Z,10.01
2023-05-19T07:02:39.879Z,10.13
2023-05-19T07:05:09.629Z,10.29
2023-05-19T07:07:38.533Z,10.64
2023-05-19T07:10:08.119Z,10.77
2023-05-19T07:12:36.969Z,10.85
2023-05-19T07:15:06.670Z,10.95
2023-05-19T07:17:35.822Z,11.11
2023-05-19T07:20:10.220Z,10.94
2023-05-19T07:22:40.009Z,11.08
2023-05-19T07:25:09.502Z,11.14
2023-05-19T07:27:38.019Z,11.20
2023-05-19T07:30:08.165Z,11.07
2023-05-19T07:32:37.093Z,11.32
2023-05-19T07:35:08.003Z,11.39
2023-05-19T07:37:36.817Z,11.40
2023-05-19T07:40:06.837Z,11.49
2023-05-19T07:42:35.962Z,11.56
2023-05-19T07:45:05.269Z,11.54
2023-05-19T07:47:34.122Z,11.38
2023-05-19T07:50:02.809Z,11.49
2023-05-19T07:52:33.086Z,11.54
2023-05-19T07:55:02.021Z,11.82
2023-05-19T07:57:30.869Z,11.90
2023-05-19T07:59:59.748Z,12.01
2023-05-19T08:02:28.890Z,12.07
2023-05-19T08:05:01.225Z,12.06
2023-05-19T08:07:29.977Z,12.24
2023-05-19T08:10:00.173Z,12.21
2023-05-19T08:12:28.912Z,12.28
2023-05-19T08:14:59.652Z,12.59
2023-05-19T08:17:32.706Z,12.81
2023-05-19T08:20:01.626Z,12.80
2023-05-19T08:22:30.454Z,13.02
2023-05-19T08:25:00.195Z,13.14
2023-05-19T08:27:28.838Z,13.09
2023-05-19T08:29:57.609Z,13.24
2023-05-19T08:32:26.622Z,13.47
2023-05-19T08:34:55.490Z,13.21
2023-05-19T08:37:23.922Z,13.39
2023-05-19T08:39:52.562Z,13.56
2023-05-19T08:42:22.817Z,13.64
2023-05-19T08:44:52.004Z,13.69
2023-05-19T08:47:21.188Z,13.99
2023-05-19T08:49:54.423Z,14.01
2023-05-19T08:52:29.579Z,14.14
2023-05-19T08:55:06.242Z,14.20
2023-05-19T08:57:36.420Z,14.38
2023-05-19T09:00:08.381Z,14.49
2023-05-19T09:02:40.468Z,14.60
2023-05-19T09:05:16.187Z,14.56
2023-05-19T09:07:45.463Z,14.62
2023-05-19T09:10:16.453Z,14.87
2023-05-19T09:12:47.955Z,14.98
2023-05-19T09:15:18.936Z,15.08
2023-05-19T09:17:48.351Z,15.11
2023-05-19T09:20:19.118Z,15.10
2023-05-19T09:22:48.628Z,15.31
2023-05-19T09:25:20.463Z,15.44
2023-05-19T09:27:51.525Z,15.75
2023-05-19T09:30:20.513Z,15.95
2023-05-19T09:32:49.186Z,15.88
2023-05-19T09:35:20.422Z,15.81
2023-05-19T09:37:49.165Z,16.12
2023-05-19T09:40:18.317Z,16.42
2023-05-19T09:42:48.979Z,16.21
2023-05-19T09:45:19.378Z,16.09
2023-05-19T09:47:48.067Z,16.35
2023-05-19T09:50:17.211Z,16.27
2023-05-19T09:52:46.727Z,15.85
2023-05-19T09:55:15.862Z,16.12
2023-05-19T09:57:46.789Z,16.36
2023-05-19T10:00:17.846Z,16.38
2023-05-19T10:02:49.258Z,16.25
2023-05-19T10:05:30.379Z,15.66
2023-05-19T10:07:59.311Z,15.73
2023-05-19T10:10:29.204Z,16.19
2023-05-19T10:12:58.328Z,16.69
2023-05-19T10:15:26.687Z,17.03
2023-05-19T10:17:58.318Z,16.82
2023-05-19T10:20:28.216Z,17.09
2023-05-19T10:22:57.003Z,17.54
2023-05-19T10:25:26.098Z,17.40
2023-05-19T10:27:56.983Z,17.65
2023-05-19T10:30:29.430Z,17.71
2023-05-19T10:33:01.465Z,17.96
2023-05-19T10:35:41.865Z,17.88
2023-05-19T10:38:16.971Z,18.16
2023-05-19T10:40:54.930Z,18.28
2023-05-19T10:43:30.400Z,18.17
2023-05-19T10:45:59.518Z,18.12
2023-05-19T10:48:35.713Z,18.18
2023-05-19T10:51:04.560Z,18.03
2023-05-19T10:53:34.614Z,17.72
2023-05-19T10:56:04.425Z,17.31
2023-05-19T10:58:51.042Z,17.14
2023-05-19T11:01:21.012Z,17.08
2023-05-19T11:03:53.931Z,17.16
2023-05-19T11:06:27.084Z,16.95
2023-05-19T11:09:02.283Z,17.00
2023-05-19T11:11:46.780Z,17.04
2023-05-19T11:14:16.801Z,17.05
2023-05-19T11:16:48.779Z,16.90
2023-05-19T11:19:27.726Z,17.11
2023-05-19T11:21:57.638Z,17.42
2023-05-19T11:24:37.334Z,17.22
2023-05-19T11:27:27.560Z,17.25
2023-05-19T11:29:57.793Z,17.28
2023-05-19T11:32:29.542Z,17.19
2023-05-19T11:35:00.498Z,17.40
2023-05-19T11:37:30.420Z,17.51
2023-05-19T11:39:59.986Z,17.69
2023-05-19T11:42:28.684Z,17.81
2023-05-19T11:44:58.093Z,17.75
2023-05-19T11:47:26.781Z,18.00
2023-05-19T11:49:56.937Z,18.18
2023-05-19T11:52:29.018Z,18.15
2023-05-19T11:55:02.593Z,18.05
2023-05-19T11:57:31.516Z,17.82
2023-05-19T12:00:09.358Z,18.00
2023-05-19T12:02:38.186Z,17.97
2023-05-19T12:05:07.837Z,18.12
2023-05-19T12:07:39.633Z,18.16
2023-05-19T12:10:08.824Z,18.06
2023-05-19T12:12:37.747Z,18.34
2023-05-19T12:15:07.929Z,18.48
2023-05-19T12:17:36.731Z,18.26
2023-05-19T12:20:07.533Z,18.09
2023-05-19T12:22:37.709Z,18.46
2023-05-19T12:25:07.152Z,18.17
2023-05-19T12:27:38.647Z,18.74
2023-05-19T12:30:09.633Z,18.91
2023-05-19T12:32:38.950Z,18.97
2023-05-19T12:35:08.897Z,19.39
2023-05-19T12:37:43.185Z,19.59
2023-05-19T12:40:17.524Z,19.51
2023-05-19T12:42:46.728Z,19.47
2023-05-19T12:45:15.817Z,19.49
2023-05-19T12:47:49.980Z,19.75
2023-05-19T12:50:19.310Z,19.94
2023-05-19T12:52:52.187Z,19.85
2023-05-19T12:55:22.428Z,19.71
2023-05-19T12:57:54.893Z,19.63
2023-05-19T13:00:25.975Z,19.83
2023-05-19T13:03:00.266Z,20.05
2023-05-19T13:05:30.213Z,20.01
2023-05-19T13:08:02.153Z,19.82
2023-05-19T13:10:32.253Z,19.86
2023-05-19T13:13:01.525Z,19.71
2023-05-19T13:15:32.119Z,19.54
2023-05-19T13:18:02.405Z,19.67
2023-05-19T13:20:31.412Z,19.36
2023-05-19T13:23:01.438Z,19.63
2023-05-19T13:25:30.977Z,19.80
2023-05-19T13:28:01.784Z,20.01
2023-05-19T13:30:33.651Z,19.83
2023-05-19T13:33:02.624Z,20.18
2023-05-19T13:35:37.222Z,20.35
2023-05-19T13:38:10.173Z,20.38
2023-05-19T13:40:40.123Z,20.28
2023-05-19T13:43:10.124Z,20.20
2023-05-19T13:45:39.475Z,20.36
2023-05-19T13:48:08.868Z,20.34
2023-05-19T13:50:37.699Z,20.37
2023-05-19T13:53:08.468Z,20.50
2023-05-19T13:55:36.919Z,20.32
2023-05-19T13:58:05.771Z,20.14
2023-05-19T14:00:36.331Z,20.21
2023-05-19T14:03:08.056Z,19.91
2023-05-19T14:05:37.734Z,19.81
2023-05-19T14:08:08.307Z,19.79
2023-05-19T14:10:37.396Z,19.90
2023-05-19T14:13:29.929Z,20.16
2023-05-19T14:15:54.796Z,20.10
2023-05-19T14:18:23.557Z,20.06
2023-05-19T14:20:52.706Z,19.94
2023-05-19T14:23:22.752Z,20.13
2023-05-19T14:25:51.612Z,20.14
2023-05-19T14:28:20.239Z,20.35
2023-05-19T14:30:49.461Z,20.33
2023-05-19T14:33:19.544Z,20.05
2023-05-19T14:35:48.416Z,20.05
2023-05-19T14:38:17.297Z,20.10
2023-05-19T14:40:48.595Z,20.26
2023-05-19T14:43:19.821Z,20.39
2023-05-19T14:45:48.848Z,20.32
2023-05-19T14:48:17.736Z,20.11
2023-05-19T14:50:48.432Z,20.11
2023-05-19T14:53:17.635Z,20.03
2023-05-19T14:55:49.029Z,20.02
2023-05-19T14:58:28.488Z,19.86
2023-05-19T15:00:59.612Z,20.11
2023-05-19T15:03:28.647Z,19.47
2023-05-19T15:05:57.992Z,19.38
2023-05-19T15:08:26.805Z,19.87
2023-05-19T15:10:57.181Z,20.15
2023-05-19T15:13:26.690Z,20.17
2023-05-19T15:16:08.412Z,19.73
2023-05-19T15:18:44.612Z,20.03
2023-05-19T15:21:13.568Z,20.04
2023-05-19T15:23:42.447Z,20.14
2023-05-19T15:26:12.581Z,20.41
2023-05-19T15:28:42.579Z,20.28
2023-05-19T15:31:11.595Z,20.24
2023-05-19T15:33:40.422Z,20.07
2023-05-19T15:36:11.618Z,20.08
2023-05-19T15:38:40.435Z,19.85
2023-05-19T15:41:13.413Z,19.51
2023-05-19T15:43:42.911Z,19.33
2023-05-19T15:46:13.513Z,19.46
2023-05-19T15:48:42.460Z,19.70
2023-05-19T15:51:11.767Z,19.40
2023-05-19T15:53:40.577Z,19.18
2023-05-19T15:56:09.327Z,18.79
2023-05-19T15:58:40.055Z,18.93
2023-05-19T16:01:09.295Z,18.75
2023-05-19T16:03:38.419Z,18.23
2023-05-19T16:06:09.350Z,18.16
2023-05-19T16:08:38.575Z,18.02
2023-05-19T16:11:08.265Z,17.68
2023-05-19T16:13:40.299Z,17.53
2023-05-19T16:16:09.908Z,17.49
2023-05-19T16:18:38.500Z,17.41
2023-05-19T16:21:07.840Z,17.16
2023-05-19T16:23:36.288Z,17.17
2023-05-19T16:26:05.577Z,16.97
2023-05-19T16:28:34.802Z,16.80
2023-05-19T16:31:06.487Z,16.78
2023-05-19T16:33:35.703Z,16.78
2023-05-19T16:36:06.009Z,16.76
2023-05-19T16:38:35.735Z,16.67
2023-05-19T16:41:05.547Z,16.56
2023-05-19T16:43:36.313Z,16.44
2023-05-19T16:46:07.305Z,16.53
2023-05-19T16:48:36.703Z,16.56
2023-05-19T16:51:05.854Z,16.70
2023-05-19T16:53:34.303Z,16.84
2023-05-19T16:56:03.150Z,16.99
2023-05-19T16:58:32.224Z,16.95
2023-05-19T17:01:00.725Z,16.74
2023-05-19T17:03:32.005Z,16.47
2023-05-19T17:06:01.186Z,16.40
2023-05-19T17:08:29.935Z,16.32
2023-05-19T17:10:58.781Z,16.28
2023-05-19T17:13:29.061Z,16.19
2023-05-19T17:15:57.744Z,16.16
2023-05-19T17:18:26.735Z,16.07
2023-05-19T17:20:57.070Z,16.03
2023-05-19T17:23:26.002Z,16.00
2023-05-19T17:25:56.273Z,15.91
2023-05-19T17:28:24.987Z,15.89
2023-05-19T17:30:53.899Z,15.88
2023-05-19T17:33:23.188Z,15.79
2023-05-19T17:35:52.089Z,15.80
2023-05-19T17:38:22.276Z,15.75
2023-05-19T17:40:51.274Z,15.71
2023-05-19T17:43:20.186Z,15.65
2023-05-19T17:45:49.287Z,15.61
2023-05-19T17:48:18.320Z,15.54
2023-05-19T17:50:48.601Z,15.48
2023-05-19T17:53:17.879Z,15.41
2023-05-19T17:55:52.791Z,15.28
2023-05-19T17:58:22.035Z,15.21
2023-05-19T18:00:52.846Z,15.21
2023-05-19T18:03:22.877Z,15.16
2023-05-19T18:05:53.238Z,15.14
2023-05-19T18:08:22.837Z,15.07
2023-05-19T18:10:54.136Z,15.03
2023-05-19T18:13:23.798Z,14.99
2023-05-19T18:15:53.319Z,14.95
2023-05-19T18:18:22.004Z,14.90
2023-05-19T18:20:51.138Z,14.85
2023-05-19T18:23:20.606Z,14.81
2023-05-19T18:25:53.546Z,14.77
2023-05-19T18:28:22.450Z,14.71
2023-05-19T18:31:00.594Z,14.61
2023-05-19T18:33:30.930Z,14.58
2023-05-19T18:36:00.426Z,14.49
2023-05-19T18:38:29.315Z,14.40
2023-05-19T18:41:01.010Z,14.39
2023-05-19T18:43:30.324Z,14.31
2023-05-19T18:45:58.966Z,14.31
2023-05-19T18:48:28.339Z,14.27
2023-05-19T18:50:57.468Z,14.27
2023-05-19T18:53:26.709Z,14.28
2023-05-19T18:55:55.225Z,14.30
2023-05-19T18:58:25.642Z,14.31
2023-05-19T19:00:56.614Z,14.27
2023-05-19T19:03:25.765Z,14.30
2023-05-19T19:05:57.833Z,14.32
2023-05-19T19:08:26.898Z,14.33
2023-05-19T19:11:00.414Z,14.35
2023-05-19T19:13:31.123Z,14.37
2023-05-19T19:16:00.068Z,14.34
2023-05-19T19:18:29.376Z,14.36
2023-05-19T19:20:59.970Z,14.36
2023-05-19T19:23:29.172Z,14.31
2023-05-19T19:25:57.902Z,14.34
2023-05-19T19:28:26.847Z,14.36
2023-05-19T19:30:57.551Z,14.31
2023-05-19T19:33:26.540Z,14.29
2023-05-19T19:35:55.062Z,14.27
2023-05-19T19:38:23.896Z,14.22
2023-05-19T19:40:52.866Z,14.25
2023-05-19T19:43:21.665Z,14.25
2023-05-19T19:45:50.392Z,14.23
2023-05-19T19:48:20.177Z,14.22
2023-05-19T19:50:53.124Z,14.23
2023-05-19T19:53:21.773Z,14.22
2023-05-19T19:55:58.042Z,14.23
2023-05-19T19:58:28.001Z,14.22
2023-05-19T20:00:59.690Z,14.24
2023-05-19T20:03:30.175Z,14.24
2023-05-19T20:05:58.892Z,14.21
2023-05-19T20:08:28.243Z,14.22
2023-05-19T20:10:56.858Z,14.22
2023-05-19T20:13:25.756Z,14.15
2023-05-19T20:15:54.544Z,14.14
2023-05-19T20:18:25.009Z,14.17
2023-05-19T20:20:55.608Z,14.17
2023-05-19T20:23:25.073Z,14.17
2023-05-19T20:26:10.032Z,14.12
2023-05-19T20:28:40.883Z,14.13
2023-05-19T20:31:09.692Z,14.14
2023-05-19T20:33:39.216Z,14.13
2023-05-19T20:36:11.188Z,14.17
2023-05-19T20:38:39.744Z,14.12
2023-05-19T20:41:08.555Z,14.14
2023-05-19T20:43:37.378Z,14.12
2023-05-19T20:46:06.660Z,14.07
2023-05-19T20:48:35.454Z,14.02
2023-05-19T20:51:04.228Z,14.02
2023-05-19T20:53:34.024Z,13.98
2023-05-19T20:56:04.422Z,13.97
2023-05-19T20:58:33.756Z,13.94
2023-05-19T21:01:02.677Z,13.89
2023-05-19T21:03:32.260Z,13.86
2023-05-19T21:06:01.590Z,13.85
2023-05-19T21:08:30.185Z,13.82
2023-05-19T21:11:00.749Z,13.76
2023-05-19T21:13:29.884Z,13.72
2023-05-19T21:15:59.070Z,13.66
2023-05-19T21:18:28.665Z,13.62
2023-05-19T21:20:57.470Z,13.60
2023-05-19T21:23:26.328Z,13.58
2023-05-19T21:25:55.565Z,13.54
2023-05-19T21:28:26.144Z,13.44
2023-05-19T21:30:55.780Z,13.37
2023-05-19T21:33:25.487Z,13.34
2023-05-19T21:35:54.216Z,13.29
2023-05-19T21:38:24.316Z,13.22
2023-05-19T21:40:53.866Z,13.18
2023-05-19T21:43:23.649Z,13.14
2023-05-19T21:45:53.641Z,13.04
2023-05-19T21:48:23.035Z,12.99
2023-05-19T21:50:54.951Z,12.98
2023-05-19T21:53:23.855Z,12.95
2023-05-19T21:55:52.467Z,12.95
2023-05-19T21:58:21.638Z,12.93
2023-05-19T22:00:51.359Z,12.90
2023-05-19T22:03:21.973Z,12.91
2023-05-19T22:05:51.316Z,12.87
2023-05-19T22:08:20.876Z,12.81
2023-05-19T22:10:51.714Z,12.74
2023-05-19T22:13:20.496Z,12.63
2023-05-19T22:15:49.892Z,12.66
2023-05-19T22:18:18.725Z,12.60
2023-05-19T22:20:49.441Z,12.47
2023-05-19T22:23:17.939Z,12.41
2023-05-19T22:25:47.217Z,12.35
2023-05-19T22:28:16.151Z,12.28
2023-05-19T22:30:45.373Z,12.17
2023-05-19T22:33:14.092Z,12.10
2023-05-19T22:35:43.997Z,12.03
2023-05-19T22:38:14.214Z,11.98
2023-05-19T22:40:43.019Z,11.90
2023-05-19T22:43:11.919Z,11.84
2023-05-19T22:45:41.143Z,11.84
2023-05-19T22:48:10.221Z,11.80
2023-05-19T22:50:39.348Z,11.73
2023-05-19T22:53:08.794Z,11.67
2023-05-19T22:55:39.253Z,11.63
2023-05-19T22:58:08.374Z,11.60
2023-05-19T23:00:40.787Z,11.57
2023-05-19T23:03:10.061Z,11.47
2023-05-19T23:05:39.114Z,11.48
2023-05-19T23:08:08.045Z,11.49
2023-05-19T23:10:36.981Z,11.46
2023-05-19T23:13:08.470Z,11.44
2023-05-19T23:15:39.077Z,11.42
2023-05-19T23:18:09.182Z,11.39
2023-05-19T23:20:38.177Z,11.37
2023-05-19T23:23:07.288Z,11.32
2023-05-19T23:25:36.209Z,11.31
2023-05-19T23:28:10.985Z,11.27
2023-05-19T23:30:47.932Z,11.24
2023-05-19T23:33:18.243Z,11.23
2023-05-19T23:35:47.783Z,11.22
2023-05-19T23:38:18.236Z,11.20
2023-05-19T23:40:46.964Z,11.17
2023-05-19T23:43:17.035Z,11.13
2023-05-19T23:45:46.625Z,11.09
2023-05-19T23:48:15.865Z,11.02
2023-05-19T23:50:45.204Z,10.97
2023-05-19T23:53:13.859Z,10.91
2023-05-19T23:55:42.667Z,10.85
2023-05-19T23:58:11.426Z,10.82
